Izumi — JD3743 — position and weather

sailwx.info

Track history (hours):
 
Tides and Currents Weather Stations Pressure Air Temp Water Temp Dewpoint Dewpoint Depression Visibility Wind Speed Wind Dir Waves Ship Positions

Izumi

Last reported at 2017-Nov-19 20:51 UTC. Time now 2017-Nov-20 17:06 UTC.
Position N 34°31' E 135°24'.

Length 195 m; draft 6.3 m.

Type: Passenger vessel. MMSI: 431006014.

Date/timePositionNaut miles runAvg speedWind from/ knotsBaromVisibWave heightAir tempDewpointWater temp
2017-Nov-19 20:51N 34°31' E 135°24'2 4.7
2017-Nov-19 20:30N 34°32' E 135°23'918.4
2017-Nov-19 20:00N 34°34' E 135°12'1019.5
2017-Nov-19 19:30N 34°37' E 135°00'11 0.3
2017-Nov-18 10:06N 34°34' E 134°48'223.2
2017-Nov-18 10:00N 34°35' E 134°50'1121.4
2017-Nov-18 09:30N 34°36' E 135°03'1121.3
2017-Nov-18 09:00N 34°36' E 135°16'8 6.3
2017-Nov-18 07:45N 34°31' E 135°24'0 0.0
2017-Nov-18 07:27N 34°31' E 135°24'0 0.0
2017-Nov-18 07:00N 34°31' E 135°24'0 0.0
2017-Nov-18 06:25N 34°31' E 135°24'0 0.0
2017-Nov-18 06:00N 34°31' E 135°24'0 0.0
2017-Nov-18 05:29N 34°31' E 135°24'0 0.0
2017-Nov-18 04:57N 34°31' E 135°24'0 0.0
2017-Nov-18 04:29N 34°31' E 135°24'0 0.0
2017-Nov-18 03:59N 34°31' E 135°24'0 0.0
2017-Nov-18 03:29N 34°31' E 135°24'0 0.0
2017-Nov-18 02:59N 34°31' E 135°24'0 0.0
2017-Nov-18 02:30N 34°31' E 135°24'0 0.0
2017-Nov-18 01:59N 34°31' E 135°24'0 0.0
2017-Nov-18 01:30N 34°31' E 135°24'0 0.0
2017-Nov-18 01:01N 34°31' E 135°24'0 0.0
2017-Nov-18 00:30N 34°31' E 135°24'0 0.0
2017-Nov-18 00:00N 34°31' E 135°24'0 0.0
2017-Nov-17 23:30N 34°31' E 135°24'0 0.0
2017-Nov-17 23:00N 34°31' E 135°24'0 0.0
2017-Nov-17 22:30N 34°31' E 135°24'0 0.0
2017-Nov-17 22:00N 34°31' E 135°24'0 0.0
2017-Nov-17 21:30N 34°31' E 135°24'0 0.0
2017-Nov-17 21:00N 34°31' E 135°24'2 4.3
2017-Nov-17 20:30N 34°33' E 135°22'918.9
2017-Nov-17 20:00N 34°34' E 135°11'918.8
2017-Nov-17 19:30N 34°37' E 135°00'12 0.4
2017-Nov-16 10:10N 34°33' E 134°46'523.4
2017-Nov-16 09:56N 34°35' E 134°52'921.4
2017-Nov-16 09:31N 34°36' E 135°03'1121.1
2017-Nov-16 09:00N 34°33' E 135°16'7 0.6
2017-Nov-15 20:59N 34°31' E 135°24'3 6.6
2017-Nov-15 20:30N 34°33' E 135°21'1121.7
2017-Nov-15 20:00N 34°34' E 135°08'918.9
2017-Nov-15 19:30N 34°36' E 134°56'11 0.3
2017-Nov-14 10:10N 34°32' E 134°44'523.4
2017-Nov-14 09:57N 34°34' E 134°50'1023.0
2017-Nov-14 09:31N 34°37' E 135°02'1122.1
2017-Nov-14 09:00N 34°34' E 135°15'8 2.2
2017-Nov-14 05:34N 34°31' E 135°24'0 0.0
2017-Nov-14 05:30N 34°31' E 135°24'0 0.0
2017-Nov-14 04:52N 34°31' E 135°24'0 0.0
2017-Nov-14 03:38N 34°31' E 135°24'0 0.0
2017-Nov-14 03:30N 34°31' E 135°24'0 0.0
2017-Nov-14 02:48N 34°31' E 135°24'0 0.0
2017-Nov-14 02:30N 34°31' E 135°24'0 0.0
2017-Nov-14 02:00N 34°31' E 135°24'0 0.0
2017-Nov-14 01:18N 34°31' E 135°24'0 0.0
2017-Nov-14 00:59N 34°31' E 135°24'0 0.0
2017-Nov-14 00:28N 34°31' E 135°24'0 0.0
2017-Nov-13 23:58N 34°31' E 135°24'0 0.0
2017-Nov-13 23:30N 34°31' E 135°24'0 0.0
2017-Nov-13 23:00N 34°31' E 135°24'0 0.0
2017-Nov-13 22:30N 34°31' E 135°24'0 0.0
2017-Nov-13 21:59N 34°31' E 135°24'35 1.0
2017-Nov-12 10:22N 34°32' E 134°41'923.4
2017-Nov-12 10:00N 34°34' E 134°51'1121.2
2017-Nov-12 09:30N 34°36' E 135°04'1122.0
2017-Nov-12 09:00N 34°34' E 135°17'7 0.5
2017-Nov-11 20:53N 34°31' E 135°24'1 3.5
2017-Nov-11 20:30N 34°32' E 135°23'918.6
2017-Nov-11 20:00N 34°34' E 135°12'1121.5
2017-Nov-11 19:30N 34°37' E 134°59'15 0.5
2017-Nov-10 10:24N 34°32' E 134°41'922.1
2017-Nov-10 10:00N 34°35' E 134°52'1019.2
2017-Nov-10 09:30N 34°36' E 135°03'1121.5
2017-Nov-10 09:00N 34°34' E 135°16'7 0.6
2017-Nov-09 21:40N 34°31' E 135°24'0 0.0
2017-Nov-09 21:23N 34°31' E 135°24'0 0.0
2017-Nov-09 20:55N 34°31' E 135°24'  
Track history (hours):
 
Tides and Currents Weather Stations Pressure Air Temp Water Temp Dewpoint Dewpoint Depression Visibility Wind Speed Wind Dir Waves Ship Positions

Izumi

Last reported at 2017-Nov-19 20:51 UTC. Time now 2017-Nov-20 17:06 UTC.
Position N 34°31' E 135°24'.

Length 195 m; draft 6.3 m.

Type: Passenger vessel. MMSI: 431006014.

Date/timePositionNaut miles runAvg speedWind from/ knotsBaromVisibWave heightAir tempDewpointWater temp
2017-Nov-19 20:51N 34°31' E 135°24'2 4.7
2017-Nov-19 20:30N 34°32' E 135°23'918.4
2017-Nov-19 20:00N 34°34' E 135°12'1019.5
2017-Nov-19 19:30N 34°37' E 135°00'11 0.3
2017-Nov-18 10:06N 34°34' E 134°48'223.2
2017-Nov-18 10:00N 34°35' E 134°50'1121.4
2017-Nov-18 09:30N 34°36' E 135°03'1121.3
2017-Nov-18 09:00N 34°36' E 135°16'8 6.3
2017-Nov-18 07:45N 34°31' E 135°24'0 0.0
2017-Nov-18 07:27N 34°31' E 135°24'0 0.0
2017-Nov-18 07:00N 34°31' E 135°24'0 0.0
2017-Nov-18 06:25N 34°31' E 135°24'0 0.0
2017-Nov-18 06:00N 34°31' E 135°24'0 0.0
2017-Nov-18 05:29N 34°31' E 135°24'0 0.0
2017-Nov-18 04:57N 34°31' E 135°24'0 0.0
2017-Nov-18 04:29N 34°31' E 135°24'0 0.0
2017-Nov-18 03:59N 34°31' E 135°24'0 0.0
2017-Nov-18 03:29N 34°31' E 135°24'0 0.0
2017-Nov-18 02:59N 34°31' E 135°24'0 0.0
2017-Nov-18 02:30N 34°31' E 135°24'0 0.0
2017-Nov-18 01:59N 34°31' E 135°24'0 0.0
2017-Nov-18 01:30N 34°31' E 135°24'0 0.0
2017-Nov-18 01:01N 34°31' E 135°24'0 0.0
2017-Nov-18 00:30N 34°31' E 135°24'0 0.0
2017-Nov-18 00:00N 34°31' E 135°24'0 0.0
2017-Nov-17 23:30N 34°31' E 135°24'0 0.0
2017-Nov-17 23:00N 34°31' E 135°24'0 0.0
2017-Nov-17 22:30N 34°31' E 135°24'0 0.0
2017-Nov-17 22:00N 34°31' E 135°24'0 0.0
2017-Nov-17 21:30N 34°31' E 135°24'0 0.0
2017-Nov-17 21:00N 34°31' E 135°24'2 4.3
2017-Nov-17 20:30N 34°33' E 135°22'918.9
2017-Nov-17 20:00N 34°34' E 135°11'918.8
2017-Nov-17 19:30N 34°37' E 135°00'12 0.4
2017-Nov-16 10:10N 34°33' E 134°46'523.4
2017-Nov-16 09:56N 34°35' E 134°52'921.4
2017-Nov-16 09:31N 34°36' E 135°03'1121.1
2017-Nov-16 09:00N 34°33' E 135°16'7 0.6
2017-Nov-15 20:59N 34°31' E 135°24'3 6.6
2017-Nov-15 20:30N 34°33' E 135°21'1121.7
2017-Nov-15 20:00N 34°34' E 135°08'918.9
2017-Nov-15 19:30N 34°36' E 134°56'11 0.3
2017-Nov-14 10:10N 34°32' E 134°44'523.4
2017-Nov-14 09:57N 34°34' E 134°50'1023.0
2017-Nov-14 09:31N 34°37' E 135°02'1122.1
2017-Nov-14 09:00N 34°34' E 135°15'8 2.2
2017-Nov-14 05:34N 34°31' E 135°24'0 0.0
2017-Nov-14 05:30N 34°31' E 135°24'0 0.0
2017-Nov-14 04:52N 34°31' E 135°24'0 0.0
2017-Nov-14 03:38N 34°31' E 135°24'0 0.0
2017-Nov-14 03:30N 34°31' E 135°24'0 0.0
2017-Nov-14 02:48N 34°31' E 135°24'0 0.0
2017-Nov-14 02:30N 34°31' E 135°24'0 0.0
2017-Nov-14 02:00N 34°31' E 135°24'0 0.0
2017-Nov-14 01:18N 34°31' E 135°24'0 0.0
2017-Nov-14 00:59N 34°31' E 135°24'0 0.0
2017-Nov-14 00:28N 34°31' E 135°24'0 0.0
2017-Nov-13 23:58N 34°31' E 135°24'0 0.0
2017-Nov-13 23:30N 34°31' E 135°24'0 0.0
2017-Nov-13 23:00N 34°31' E 135°24'0 0.0
2017-Nov-13 22:30N 34°31' E 135°24'0 0.0
2017-Nov-13 21:59N 34°31' E 135°24'35 1.0
2017-Nov-12 10:22N 34°32' E 134°41'923.4
2017-Nov-12 10:00N 34°34' E 134°51'1121.2
2017-Nov-12 09:30N 34°36' E 135°04'1122.0
2017-Nov-12 09:00N 34°34' E 135°17'7 0.5
2017-Nov-11 20:53N 34°31' E 135°24'1 3.5
2017-Nov-11 20:30N 34°32' E 135°23'918.6
2017-Nov-11 20:00N 34°34' E 135°12'1121.5
2017-Nov-11 19:30N 34°37' E 134°59'15 0.5
2017-Nov-10 10:24N 34°32' E 134°41'922.1
2017-Nov-10 10:00N 34°35' E 134°52'1019.2
2017-Nov-10 09:30N 34°36' E 135°03'1121.5
2017-Nov-10 09:00N 34°34' E 135°16'7 0.6
2017-Nov-09 21:40N 34°31' E 135°24'0 0.0
2017-Nov-09 21:23N 34°31' E 135°24'0 0.0
2017-Nov-09 20:55N 34°31' E 135°24'  

Dump ship's entire track history